sensor_id;sensor_type;location;lat;lon;timestamp;pressure;altitude;pressure_sealevel;temperature;humidity
43257;BME280;28860;43.212;27.934;2023-02-18T00:00:11;101659.97;;;14.48;33.39
43257;BME280;28860;43.212;27.934;2023-02-18T00:02:37;101658.53;;;14.12;33.85
43257;BME280;28860;43.212;27.934;2023-02-18T00:05:03;101652.81;;;13.87;34.18
43257;BME280;28860;43.212;27.934;2023-02-18T00:07:33;101649.16;;;14.34;33.64
43257;BME280;28860;43.212;27.934;2023-02-18T00:09:59;101652.19;;;14.13;33.61
43257;BME280;28860;43.212;27.934;2023-02-18T00:12:25;101641.78;;;14.07;33.56
43257;BME280;28860;43.212;27.934;2023-02-18T00:14:50;101649.16;;;14.34;33.19
43257;BME280;28860;43.212;27.934;2023-02-18T00:17:16;101640.41;;;13.99;33.78
43257;BME280;28860;43.212;27.934;2023-02-18T00:19:42;101644.06;;;13.98;33.69
43257;BME280;28860;43.212;27.934;2023-02-18T00:22:07;101609.75;;;14.00;33.31
43257;BME280;28860;43.212;27.934;2023-02-18T00:24:33;101637.59;;;14.46;32.93
43257;BME280;28860;43.212;27.934;2023-02-18T00:26:58;101628.13;;;14.39;32.84
43257;BME280;28860;43.212;27.934;2023-02-18T00:29:24;101620.44;;;14.47;32.83
43257;BME280;28860;43.212;27.934;2023-02-18T00:31:49;101609.66;;;14.62;32.60
43257;BME280;28860;43.212;27.934;2023-02-18T00:34:15;101618.13;;;14.70;32.31
43257;BME280;28860;43.212;27.934;2023-02-18T00:36:41;101609.66;;;14.33;32.98
43257;BME280;28860;43.212;27.934;2023-02-18T00:39:08;101608.47;;;14.66;32.57
43257;BME280;28860;43.212;27.934;2023-02-18T00:41:35;101597.69;;;14.51;32.44
43257;BME280;28860;43.212;27.934;2023-02-18T00:44:01;101593.63;;;14.29;33.05
43257;BME280;28860;43.212;27.934;2023-02-18T00:46:27;101602.41;;;14.48;32.73
43257;BME280;28860;43.212;27.934;2023-02-18T00:48:54;101595.75;;;14.24;32.78
43257;BME280;28860;43.212;27.934;2023-02-18T00:51:20;101582.03;;;14.13;33.07
43257;BME280;28860;43.212;27.934;2023-02-18T00:53:45;101586.50;;;14.28;32.53
43257;BME280;28860;43.212;27.934;2023-02-18T00:56:11;101577.25;;;14.47;32.29
43257;BME280;28860;43.212;27.934;2023-02-18T00:58:37;101580.72;;;14.64;32.25
43257;BME280;28860;43.212;27.934;2023-02-18T01:01:04;101584.09;;;14.82;31.96
43257;BME280;28860;43.212;27.934;2023-02-18T01:03:31;101575.31;;;14.64;32.19
43257;BME280;28860;43.212;27.934;2023-02-18T01:05:56;101574.72;;;14.44;32.26
43257;BME280;28860;43.212;27.934;2023-02-18T01:08:22;101550.84;;;14.38;32.37
43257;BME280;28860;43.212;27.934;2023-02-18T01:10:51;101576.28;;;14.48;32.54
43257;BME280;28860;43.212;27.934;2023-02-18T01:13:20;101564.31;;;14.67;32.15
43257;BME280;28860;43.212;27.934;2023-02-18T01:15:46;101562.78;;;14.77;31.83
43257;BME280;28860;43.212;27.934;2023-02-18T01:18:12;101558.72;;;14.41;32.19
43257;BME280;28860;43.212;27.934;2023-02-18T01:20:39;101561.22;;;14.44;32.18
43257;BME280;28860;43.212;27.934;2023-02-18T01:23:05;101554.03;;;14.74;32.01
43257;BME280;28860;43.212;27.934;2023-02-18T01:25:32;101551.69;;;14.82;31.69
43257;BME280;28860;43.212;27.934;2023-02-18T01:27:58;101553.44;;;14.83;31.57
43257;BME280;28860;43.212;27.934;2023-02-18T01:30:24;101543.75;;;14.64;31.69
43257;BME280;28860;43.212;27.934;2023-02-18T01:32:49;101549.47;;;14.74;31.76
43257;BME280;28860;43.212;27.934;2023-02-18T01:35:23;101548.13;;;14.67;31.96
43257;BME280;28860;43.212;27.934;2023-02-18T01:37:49;101529.63;;;14.75;31.56
43257;BME280;28860;43.212;27.934;2023-02-18T01:40:17;101538.75;;;14.87;31.46
43257;BME280;28860;43.212;27.934;2023-02-18T01:42:44;101546.31;;;14.82;31.42
43257;BME280;28860;43.212;27.934;2023-02-18T01:47:56;101556.31;;;14.65;32.05
43257;BME280;28860;43.212;27.934;2023-02-18T01:50:22;101549.28;;;14.77;31.53
43257;BME280;28860;43.212;27.934;2023-02-18T01:52:47;101550.63;;;14.84;31.50
43257;BME280;28860;43.212;27.934;2023-02-18T01:55:13;101553.03;;;14.89;31.42
43257;BME280;28860;43.212;27.934;2023-02-18T01:57:38;101554.78;;;14.47;31.92
43257;BME280;28860;43.212;27.934;2023-02-18T02:02:39;101514.47;;;14.73;31.17
43257;BME280;28860;43.212;27.934;2023-02-18T02:05:06;101502.41;;;14.64;31.29
43257;BME280;28860;43.212;27.934;2023-02-18T02:07:31;101506.75;;;14.52;31.58
43257;BME280;28860;43.212;27.934;2023-02-18T02:10:00;101511.28;;;14.80;31.23
43257;BME280;28860;43.212;27.934;2023-02-18T02:34:17;101525.88;;;14.34;31.99
43257;BME280;28860;43.212;27.934;2023-02-18T02:36:58;101505.06;;;14.36;31.72
43257;BME280;28860;43.212;27.934;2023-02-18T02:51:08;101533.31;;;14.45;31.61
43257;BME280;28860;43.212;27.934;2023-02-18T02:53:36;101530.00;;;14.40;31.57
43257;BME280;28860;43.212;27.934;2023-02-18T02:56:04;101516.63;;;14.38;31.72
43257;BME280;28860;43.212;27.934;2023-02-18T02:58:30;101494.84;;;13.83;32.26
43257;BME280;28860;43.212;27.934;2023-02-18T03:04:03;101517.69;;;14.07;32.07
43257;BME280;28860;43.212;27.934;2023-02-18T03:12:19;101505.94;;;14.37;31.67
43257;BME280;28860;43.212;27.934;2023-02-18T03:15:07;101482.19;;;14.56;31.52
43257;BME280;28860;43.212;27.934;2023-02-18T03:20:18;101493.34;;;14.79;31.05
43257;BME280;28860;43.212;27.934;2023-02-18T03:22:51;101501.28;;;14.39;31.70
43257;BME280;28860;43.212;27.934;2023-02-18T03:25:20;101500.75;;;14.19;31.92
43257;BME280;28860;43.212;27.934;2023-02-18T03:27:55;101478.88;;;14.09;32.33
43257;BME280;28860;43.212;27.934;2023-02-18T03:30:26;101475.88;;;14.14;31.74
43257;BME280;28860;43.212;27.934;2023-02-18T03:32:58;101494.34;;;14.49;31.58
43257;BME280;28860;43.212;27.934;2023-02-18T03:35:27;101472.00;;;14.47;31.53
43257;BME280;28860;43.212;27.934;2023-02-18T03:38:00;101484.31;;;14.51;31.69
43257;BME280;28860;43.212;27.934;2023-02-18T03:40:30;101469.13;;;14.36;31.85
43257;BME280;28860;43.212;27.934;2023-02-18T03:42:59;101465.41;;;14.51;31.51
43257;BME280;28860;43.212;27.934;2023-02-18T03:45:26;101481.09;;;14.74;31.23
43257;BME280;28860;43.212;27.934;2023-02-18T03:47:55;101477.34;;;14.76;31.32
43257;BME280;28860;43.212;27.934;2023-02-18T03:50:20;101465.34;;;14.53;31.85
43257;BME280;28860;43.212;27.934;2023-02-18T03:52:46;101478.13;;;14.64;31.68
43257;BME280;28860;43.212;27.934;2023-02-18T03:55:11;101481.19;;;14.72;31.40
43257;BME280;28860;43.212;27.934;2023-02-18T03:57:37;101485.25;;;14.65;31.59
43257;BME280;28860;43.212;27.934;2023-02-18T04:00:06;101480.69;;;14.80;31.28
43257;BME280;28860;43.212;27.934;2023-02-18T04:02:32;101489.13;;;14.61;31.54
43257;BME280;28860;43.212;27.934;2023-02-18T04:04:58;101477.16;;;14.65;31.50
43257;BME280;28860;43.212;27.934;2023-02-18T04:07:25;101480.53;;;14.68;31.31
43257;BME280;28860;43.212;27.934;2023-02-18T04:09:53;101487.34;;;14.74;31.34
43257;BME280;28860;43.212;27.934;2023-02-18T04:12:23;101483.72;;;14.75;31.52
43257;BME280;28860;43.212;27.934;2023-02-18T04:14:49;101484.28;;;14.80;31.44
43257;BME280;28860;43.212;27.934;2023-02-18T04:17:18;101477.34;;;14.76;31.41
43257;BME280;28860;43.212;27.934;2023-02-18T04:19:46;101483.97;;;14.14;32.33
43257;BME280;28860;43.212;27.934;2023-02-18T04:22:12;101483.00;;;14.15;32.29
43257;BME280;28860;43.212;27.934;2023-02-18T04:24:40;101471.91;;;14.05;32.45
43257;BME280;28860;43.212;27.934;2023-02-18T04:27:08;101467.97;;;14.25;32.07
43257;BME280;28860;43.212;27.934;2023-02-18T04:29:35;101463.50;;;14.39;32.05
43257;BME280;28860;43.212;27.934;2023-02-18T04:32:01;101477.22;;;14.21;32.43
43257;BME280;28860;43.212;27.934;2023-02-18T04:34:27;101467.22;;;13.80;32.66
43257;BME280;28860;43.212;27.934;2023-02-18T04:36:54;101465.47;;;14.08;32.32
43257;BME280;28860;43.212;27.934;2023-02-18T04:39:23;101458.28;;;14.08;32.05
43257;BME280;28860;43.212;27.934;2023-02-18T04:41:49;101434.25;;;14.18;32.13
43257;BME280;28860;43.212;27.934;2023-02-18T04:44:14;101439.03;;;14.27;31.86
43257;BME280;28860;43.212;27.934;2023-02-18T04:46:40;101436.31;;;14.42;31.82
43257;BME280;28860;43.212;27.934;2023-02-18T04:49:05;101424.16;;;14.49;31.24
43257;BME280;28860;43.212;27.934;2023-02-18T04:51:31;101434.94;;;14.64;31.27
43257;BME280;28860;43.212;27.934;2023-02-18T04:53:57;101434.50;;;14.70;31.22
43257;BME280;28860;43.212;27.934;2023-02-18T04:56:22;101437.41;;;14.81;31.26
43257;BME280;28860;43.212;27.934;2023-02-18T04:58:48;101417.72;;;14.79;31.17
43257;BME280;28860;43.212;27.934;2023-02-18T05:01:13;101416.25;;;14.88;30.96
43257;BME280;28860;43.212;27.934;2023-02-18T05:03:39;101419.78;;;14.89;30.61
43257;BME280;28860;43.212;27.934;2023-02-18T05:06:05;101426.22;;;15.00;30.86
43257;BME280;28860;43.212;27.934;2023-02-18T05:08:30;101419.03;;;14.86;30.70
43257;BME280;28860;43.212;27.934;2023-02-18T05:10:56;101423.13;;;14.79;31.00
43257;BME280;28860;43.212;27.934;2023-02-18T05:13:21;101420.16;;;14.97;30.78
43257;BME280;28860;43.212;27.934;2023-02-18T05:15:47;101416.25;;;15.01;30.61
43257;BME280;28860;43.212;27.934;2023-02-18T05:18:13;101423.22;;;15.05;30.53
43257;BME280;28860;43.212;27.934;2023-02-18T05:20:39;101428.63;;;15.05;30.51
43257;BME280;28860;43.212;27.934;2023-02-18T05:23:04;101432.47;;;15.01;30.60
43257;BME280;28860;43.212;27.934;2023-02-18T05:25:30;101426.53;;;14.96;30.60
43257;BME280;28860;43.212;27.934;2023-02-18T05:27:55;101430.28;;;14.93;30.72
43257;BME280;28860;43.212;27.934;2023-02-18T05:30:21;101421.19;;;14.81;30.75
43257;BME280;28860;43.212;27.934;2023-02-18T05:32:46;101433.13;;;15.05;30.58
43257;BME280;28860;43.212;27.934;2023-02-18T05:35:12;101425.34;;;15.00;30.59
43257;BME280;28860;43.212;27.934;2023-02-18T05:38:03;101439.13;;;14.82;30.82
43257;BME280;28860;43.212;27.934;2023-02-18T05:40:33;101443.56;;;14.69;30.88
43257;BME280;28860;43.212;27.934;2023-02-18T05:45:43;101394.72;;;14.59;30.56
43257;BME280;28860;43.212;27.934;2023-02-18T05:48:22;101440.53;;;14.61;30.66
43257;BME280;28860;43.212;27.934;2023-02-18T05:50:48;101437.41;;;14.81;30.61
43257;BME280;28860;43.212;27.934;2023-02-18T05:53:18;101430.47;;;14.77;30.70
43257;BME280;28860;43.212;27.934;2023-02-18T05:55:43;101429.00;;;14.99;30.46
43257;BME280;28860;43.212;27.934;2023-02-18T05:58:09;101432.06;;;15.07;30.28
43257;BME280;28860;43.212;27.934;2023-02-18T06:00:34;101398.53;;;14.97;30.01
43257;BME280;28860;43.212;27.934;2023-02-18T06:03:00;101428.34;;;14.95;30.24
43257;BME280;28860;43.212;27.934;2023-02-18T06:05:26;101421.44;;;14.91;30.16
43257;BME280;28860;43.212;27.934;2023-02-18T06:07:51;101422.34;;;15.18;29.81
43257;BME280;28860;43.212;27.934;2023-02-18T06:10:17;101417.28;;;15.26;29.74
43257;BME280;28860;43.212;27.934;2023-02-18T06:12:43;101410.06;;;15.26;29.71
43257;BME280;28860;43.212;27.934;2023-02-18T06:15:08;101406.47;;;15.26;29.81
43257;BME280;28860;43.212;27.934;2023-02-18T06:17:34;101398.75;;;14.94;29.96
43257;BME280;28860;43.212;27.934;2023-02-18T06:20:00;101423.22;;;15.18;29.80
43257;BME280;28860;43.212;27.934;2023-02-18T06:22:26;101434.31;;;15.41;29.75
43257;BME280;28860;43.212;27.934;2023-02-18T06:24:52;101427.78;;;15.43;29.58
43257;BME280;28860;43.212;27.934;2023-02-18T06:27:18;101431.06;;;15.49;29.36
43257;BME280;28860;43.212;27.934;2023-02-18T06:29:43;101418.50;;;15.48;29.46
43257;BME280;28860;43.212;27.934;2023-02-18T06:32:11;101401.84;;;15.28;29.64
43257;BME280;28860;43.212;27.934;2023-02-18T06:34:39;101414.50;;;15.40;29.53
43257;BME280;28860;43.212;27.934;2023-02-18T06:37:05;101406.59;;;15.37;29.75
43257;BME280;28860;43.212;27.934;2023-02-18T06:39:30;101404.88;;;15.36;29.56
43257;BME280;28860;43.212;27.934;2023-02-18T06:41:56;101398.81;;;15.46;29.71
43257;BME280;28860;43.212;27.934;2023-02-18T06:44:22;101396.78;;;15.36;29.41
43257;BME280;28860;43.212;27.934;2023-02-18T06:46:47;101407.16;;;15.42;29.43
43257;BME280;28860;43.212;27.934;2023-02-18T06:49:13;101403.16;;;15.35;29.93
43257;BME280;28860;43.212;27.934;2023-02-18T06:51:38;101396.44;;;15.28;29.80
43257;BME280;28860;43.212;27.934;2023-02-18T06:54:04;101401.88;;;15.41;29.48
43257;BME280;28860;43.212;27.934;2023-02-18T06:56:30;101410.06;;;15.39;29.78
43257;BME280;28860;43.212;27.934;2023-02-18T06:58:57;101403.72;;;15.00;30.11
43257;BME280;28860;43.212;27.934;2023-02-18T07:01:23;101394.47;;;15.17;29.87
43257;BME280;28860;43.212;27.934;2023-02-18T07:03:48;101400.09;;;15.40;29.67
43257;BME280;28860;43.212;27.934;2023-02-18T07:06:14;101385.84;;;15.51;29.42
43257;BME280;28860;43.212;27.934;2023-02-18T07:08:40;101384.00;;;15.51;29.40
43257;BME280;28860;43.212;27.934;2023-02-18T07:11:06;101413.63;;;15.79;29.04
43257;BME280;28860;43.212;27.934;2023-02-18T07:13:31;101405.31;;;15.82;28.95
43257;BME280;28860;43.212;27.934;2023-02-18T07:15:57;101391.69;;;15.70;29.32
43257;BME280;28860;43.212;27.934;2023-02-18T07:18:25;101396.44;;;15.80;29.14
43257;BME280;28860;43.212;27.934;2023-02-18T07:20:50;101401.84;;;15.93;29.06
43257;BME280;28860;43.212;27.934;2023-02-18T07:23:16;101399.13;;;15.80;29.02
43257;BME280;28860;43.212;27.934;2023-02-18T07:25:41;101400.03;;;15.93;28.87
43257;BME280;28860;43.212;27.934;2023-02-18T07:28:07;101398.81;;;15.97;28.96
43257;BME280;28860;43.212;27.934;2023-02-18T07:30:32;101385.72;;;15.91;29.00
43257;BME280;28860;43.212;27.934;2023-02-18T07:32:58;101386.56;;;16.05;28.86
43257;BME280;28860;43.212;27.934;2023-02-18T07:35:23;101383.56;;;15.96;28.79
43257;BME280;28860;43.212;27.934;2023-02-18T07:37:49;101375.53;;;16.08;28.77
43257;BME280;28860;43.212;27.934;2023-02-18T07:40:18;101399.94;;;16.19;28.83
43257;BME280;28860;43.212;27.934;2023-02-18T07:42:44;101364.28;;;16.01;28.79
43257;BME280;28860;43.212;27.934;2023-02-18T07:45:10;101385.31;;;16.22;28.69
43257;BME280;28860;43.212;27.934;2023-02-18T07:47:36;101373.63;;;16.21;28.77
43257;BME280;28860;43.212;27.934;2023-02-18T07:50:02;101389.19;;;16.31;28.97
43257;BME280;28860;43.212;27.934;2023-02-18T07:52:27;101364.88;;;16.18;29.08
43257;BME280;28860;43.212;27.934;2023-02-18T07:54:53;101367.78;;;16.27;28.95
43257;BME280;28860;43.212;27.934;2023-02-18T07:57:19;101374.56;;;16.33;29.08
43257;BME280;28860;43.212;27.934;2023-02-18T07:59:44;101369.50;;;16.29;29.24
43257;BME280;28860;43.212;27.934;2023-02-18T08:02:17;101375.72;;;16.42;29.26
43257;BME280;28860;43.212;27.934;2023-02-18T08:04:43;101356.28;;;16.37;29.29
43257;BME280;28860;43.212;27.934;2023-02-18T08:07:12;101368.13;;;16.47;29.32
43257;BME280;28860;43.212;27.934;2023-02-18T08:09:39;101359.88;;;16.49;29.28
43257;BME280;28860;43.212;27.934;2023-02-18T08:12:04;101350.63;;;16.40;29.45
43257;BME280;28860;43.212;27.934;2023-02-18T08:14:30;101342.38;;;16.17;29.98
43257;BME280;28860;43.212;27.934;2023-02-18T08:16:55;101336.06;;;15.92;30.32
43257;BME280;28860;43.212;27.934;2023-02-18T08:19:21;101334.63;;;16.37;29.77
43257;BME280;28860;43.212;27.934;2023-02-18T08:21:48;101337.34;;;16.48;29.49
43257;BME280;28860;43.212;27.934;2023-02-18T08:24:14;101346.03;;;16.65;29.40
43257;BME280;28860;43.212;27.934;2023-02-18T08:26:40;101341.91;;;16.48;29.52
43257;BME280;28860;43.212;27.934;2023-02-18T08:29:08;101336.72;;;16.69;29.22
43257;BME280;28860;43.212;27.934;2023-02-18T08:31:34;101335.50;;;16.73;29.17
43257;BME280;28860;43.212;27.934;2023-02-18T08:33:59;101332.44;;;16.78;28.90
43257;BME280;28860;43.212;27.934;2023-02-18T08:36:26;101327.78;;;16.91;28.71
43257;BME280;28860;43.212;27.934;2023-02-18T08:38:52;101318.53;;;16.82;28.69
43257;BME280;28860;43.212;27.934;2023-02-18T08:41:18;101321.25;;;16.94;28.75
43257;BME280;28860;43.212;27.934;2023-02-18T08:43:46;101333.25;;;16.42;29.53
43257;BME280;28860;43.212;27.934;2023-02-18T08:46:13;101322.13;;;16.59;29.50
43257;BME280;28860;43.212;27.934;2023-02-18T08:48:39;101314.94;;;16.82;28.99
43257;BME280;28860;43.212;27.934;2023-02-18T08:51:19;101321.00;;;16.86;29.36
43257;BME280;28860;43.212;27.934;2023-02-18T08:53:46;101316.25;;;17.01;29.28
43257;BME280;28860;43.212;27.934;2023-02-18T08:56:12;101321.72;;;17.23;29.05
43257;BME280;28860;43.212;27.934;2023-02-18T08:58:39;101306.19;;;17.14;29.00
43257;BME280;28860;43.212;27.934;2023-02-18T09:01:07;101313.47;;;17.25;29.12
43257;BME280;28860;43.212;27.934;2023-02-18T09:03:33;101285.63;;;17.11;29.21
43257;BME280;28860;43.212;27.934;2023-02-18T09:05:59;101306.63;;;16.61;30.03
43257;BME280;28860;43.212;27.934;2023-02-18T09:08:26;101317.28;;;16.75;29.96
43257;BME280;28860;43.212;27.934;2023-02-18T09:10:59;101324.16;;;17.15;28.89
43257;BME280;28860;43.212;27.934;2023-02-18T09:13:26;101330.47;;;17.38;28.21
43257;BME280;28860;43.212;27.934;2023-02-18T09:15:59;101296.22;;;17.60;27.53
43257;BME280;28860;43.212;27.934;2023-02-18T09:18:25;101279.47;;;17.44;27.55
43257;BME280;28860;43.212;27.934;2023-02-18T09:20:55;101293.59;;;17.81;26.97
43257;BME280;28860;43.212;27.934;2023-02-18T09:23:21;101291.78;;;17.48;27.18
43257;BME280;28860;43.212;27.934;2023-02-18T09:25:47;101283.09;;;17.88;26.86
43257;BME280;28860;43.212;27.934;2023-02-18T09:28:13;101276.34;;;17.71;27.08
43257;BME280;28860;43.212;27.934;2023-02-18T09:30:38;101256.91;;;17.99;26.68
43257;BME280;28860;43.212;27.934;2023-02-18T09:33:04;101252.22;;;18.12;26.43
43257;BME280;28860;43.212;27.934;2023-02-18T09:35:30;101265.44;;;18.38;26.11
43257;BME280;28860;43.212;27.934;2023-02-18T09:37:57;101250.91;;;18.28;26.09
43257;BME280;28860;43.212;27.934;2023-02-18T09:40:29;101247.44;;;18.58;25.81
43257;BME280;28860;43.212;27.934;2023-02-18T09:42:56;101245.78;;;18.67;25.64
43257;BME280;28860;43.212;27.934;2023-02-18T09:45:22;101222.22;;;18.46;25.25
43257;BME280;28860;43.212;27.934;2023-02-18T09:47:49;101237.28;;;18.39;25.28
43257;BME280;28860;43.212;27.934;2023-02-18T09:50:22;101242.00;;;18.58;25.07
43257;BME280;28860;43.212;27.934;2023-02-18T09:52:48;101291.50;;;18.62;25.12
43257;BME280;28860;43.212;27.934;2023-02-18T09:55:26;101235.91;;;18.45;25.15
43257;BME280;28860;43.212;27.934;2023-02-18T09:58:03;101215.72;;;18.80;24.87
43257;BME280;28860;43.212;27.934;2023-02-18T10:00:45;101228.53;;;18.99;24.64
43257;BME280;28860;43.212;27.934;2023-02-18T10:03:24;101231.94;;;18.70;24.83
43257;BME280;28860;43.212;27.934;2023-02-18T10:05:57;101218.88;;;19.06;24.68
43257;BME280;28860;43.212;27.934;2023-02-18T10:08:35;101231.13;;;19.01;24.73
43257;BME280;28860;43.212;27.934;2023-02-18T10:11:01;101225.91;;;18.88;24.68
43257;BME280;28860;43.212;27.934;2023-02-18T10:13:29;101236.91;;;19.07;24.92
43257;BME280;28860;43.212;27.934;2023-02-18T10:15:55;101213.97;;;19.00;24.69
43257;BME280;28860;43.212;27.934;2023-02-18T10:21:15;101220.31;;;19.11;24.63
43257;BME280;28860;43.212;27.934;2023-02-18T10:24:35;101211.72;;;19.05;24.93
43257;BME280;28860;43.212;27.934;2023-02-18T10:26:38;101225.06;;;19.18;24.93
43257;BME280;28860;43.212;27.934;2023-02-18T10:29:14;101213.84;;;19.43;24.81
43257;BME280;28860;43.212;27.934;2023-02-18T10:31:44;101212.09;;;19.32;24.87
43257;BME280;28860;43.212;27.934;2023-02-18T10:50:48;101207.28;;;19.55;25.50
43257;BME280;28860;43.212;27.934;2023-02-18T10:53:32;101206.16;;;19.58;25.47
43257;BME280;28860;43.212;27.934;2023-02-18T10:55:59;101197.59;;;19.62;25.66
43257;BME280;28860;43.212;27.934;2023-02-18T10:58:45;101198.50;;;19.92;25.50
43257;BME280;28860;43.212;27.934;2023-02-18T11:01:16;101192.16;;;19.82;25.58
43257;BME280;28860;43.212;27.934;2023-02-18T11:06:33;101194.91;;;20.02;25.73
43257;BME280;28860;43.212;27.934;2023-02-18T11:09:03;101181.59;;;19.99;26.00
43257;BME280;28860;43.212;27.934;2023-02-18T11:11:37;101188.75;;;20.00;25.74
43257;BME280;28860;43.212;27.934;2023-02-18T11:14:05;101166.81;;;20.21;25.89
43257;BME280;28860;43.212;27.934;2023-02-18T11:19:02;101173.56;;;20.27;25.95
43257;BME280;28860;43.212;27.934;2023-02-18T11:21:37;101171.50;;;20.39;26.05
43257;BME280;28860;43.212;27.934;2023-02-18T11:24:20;101174.09;;;20.40;26.45
43257;BME280;28860;43.212;27.934;2023-02-18T11:26:45;101175.38;;;20.56;26.66
43257;BME280;28860;43.212;27.934;2023-02-18T11:31:45;101176.44;;;19.96;28.26
43257;BME280;28860;43.212;27.934;2023-02-18T11:34:27;101165.22;;;20.18;27.74
43257;BME280;28860;43.212;27.934;2023-02-18T11:36:54;101157.22;;;20.27;27.67
43257;BME280;28860;43.212;27.934;2023-02-18T11:39:22;101162.31;;;20.59;27.54
43257;BME280;28860;43.212;27.934;2023-02-18T11:41:58;101176.66;;;20.52;27.27
43257;BME280;28860;43.212;27.934;2023-02-18T11:44:39;101154.50;;;20.74;27.14
43257;BME280;28860;43.212;27.934;2023-02-18T11:47:19;101161.78;;;20.46;27.28
43257;BME280;28860;43.212;27.934;2023-02-18T11:50:01;101152.03;;;20.33;27.60
43257;BME280;28860;43.212;27.934;2023-02-18T11:52:44;101139.16;;;20.73;27.17
43257;BME280;28860;43.212;27.934;2023-02-18T11:57:45;101134.09;;;20.78;27.07
43257;BME280;28860;43.212;27.934;2023-02-18T12:05:49;101104.91;;;20.81;26.85
43257;BME280;28860;43.212;27.934;2023-02-18T12:08:41;101100.59;;;20.68;27.46
43257;BME280;28860;43.212;27.934;2023-02-18T12:11:15;101101.06;;;21.01;26.85
43257;BME280;28860;43.212;27.934;2023-02-18T12:13:51;101104.81;;;20.53;27.73
43257;BME280;28860;43.212;27.934;2023-02-18T12:18:47;101115.03;;;20.50;27.44
43257;BME280;28860;43.212;27.934;2023-02-18T12:21:29;101094.47;;;20.56;27.78
43257;BME280;28860;43.212;27.934;2023-02-18T12:35:31;101091.59;;;20.96;27.46
43257;BME280;28860;43.212;27.934;2023-02-18T12:43:25;101101.72;;;20.75;27.86
43257;BME280;28860;43.212;27.934;2023-02-18T12:46:07;101092.97;;;21.10;27.53
43257;BME280;28860;43.212;27.934;2023-02-18T12:51:27;101101.16;;;20.82;28.16
43257;BME280;28860;43.212;27.934;2023-02-18T13:00:09;101084.31;;;20.96;28.12
43257;BME280;28860;43.212;27.934;2023-02-18T13:08:03;101086.22;;;20.86;28.43
43257;BME280;28860;43.212;27.934;2023-02-18T13:13:22;101096.66;;;20.53;28.66
43257;BME280;28860;43.212;27.934;2023-02-18T13:16:09;101090.25;;;20.82;28.45
43257;BME280;28860;43.212;27.934;2023-02-18T13:18:43;101083.09;;;20.81;28.53
43257;BME280;28860;43.212;27.934;2023-02-18T13:21:12;101075.03;;;20.79;28.49
43257;BME280;28860;43.212;27.934;2023-02-18T13:23:48;101089.72;;;20.68;28.45
43257;BME280;28860;43.212;27.934;2023-02-18T13:26:17;101085.44;;;20.56;28.93
43257;BME280;28860;43.212;27.934;2023-02-18T13:29:14;101082.16;;;20.90;28.61
43257;BME280;28860;43.212;27.934;2023-02-18T13:31:56;101085.91;;;20.89;28.24
43257;BME280;28860;43.212;27.934;2023-02-18T13:37:27;101062.00;;;21.01;28.28
43257;BME280;28860;43.212;27.934;2023-02-18T13:39:57;101084.91;;;20.42;29.26
43257;BME280;28860;43.212;27.934;2023-02-18T13:47:45;101075.91;;;20.79;29.25
43257;BME280;28860;43.212;27.934;2023-02-18T13:58:47;101074.25;;;20.59;29.66
43257;BME280;28860;43.212;27.934;2023-02-18T14:03:59;101076.78;;;20.70;29.27
43257;BME280;28860;43.212;27.934;2023-02-18T14:06:34;101075.91;;;20.70;29.69
43257;BME280;28860;43.212;27.934;2023-02-18T14:12:14;101074.25;;;20.59;29.60
43257;BME280;28860;43.212;27.934;2023-02-18T14:14:40;101057.25;;;20.85;29.50
43257;BME280;28860;43.212;27.934;2023-02-18T14:27:34;101063.16;;;20.70;29.70
43257;BME280;28860;43.212;27.934;2023-02-18T14:32:50;101056.94;;;20.78;29.47
43257;BME280;28860;43.212;27.934;2023-02-18T14:44:02;101077.44;;;20.44;30.28
43257;BME280;28860;43.212;27.934;2023-02-18T14:47:01;101071.69;;;20.47;29.98
43257;BME280;28860;43.212;27.934;2023-02-18T14:52:33;101078.47;;;20.43;30.06
43257;BME280;28860;43.212;27.934;2023-02-18T14:55:04;101056.97;;;19.92;30.67
43257;BME280;28860;43.212;27.934;2023-02-18T14:57:38;101068.63;;;20.32;30.38
43257;BME280;28860;43.212;27.934;2023-02-18T15:00:05;101082.66;;;20.28;30.09
43257;BME280;28860;43.212;27.934;2023-02-18T15:02:36;101074.03;;;20.42;30.17
43257;BME280;28860;43.212;27.934;2023-02-18T15:05:15;101072.22;;;20.61;29.73
43257;BME280;28860;43.212;27.934;2023-02-18T15:07:41;101063.34;;;20.59;29.66
43257;BME280;28860;43.212;27.934;2023-02-18T15:10:13;101077.34;;;20.26;30.06
43257;BME280;28860;43.212;27.934;2023-02-18T15:12:40;101070.69;;;20.48;30.09
43257;BME280;28860;43.212;27.934;2023-02-18T15:15:06;101064.31;;;20.30;30.19
43257;BME280;28860;43.212;27.934;2023-02-18T15:17:31;101084.13;;;20.12;30.48
43257;BME280;28860;43.212;27.934;2023-02-18T15:20:02;101061.94;;;19.87;30.93
43257;BME280;28860;43.212;27.934;2023-02-18T15:22:34;101069.22;;;20.16;30.33
43257;BME280;28860;43.212;27.934;2023-02-18T15:25:00;101062.41;;;19.92;30.62
43257;BME280;28860;43.212;27.934;2023-02-18T15:27:29;101084.31;;;19.71;31.23
43257;BME280;28860;43.212;27.934;2023-02-18T15:30:23;101056.34;;;19.89;30.75
43257;BME280;28860;43.212;27.934;2023-02-18T15:32:55;101084.41;;;20.19;30.32
43257;BME280;28860;43.212;27.934;2023-02-18T15:35:31;101092.06;;;19.96;31.09
43257;BME280;28860;43.212;27.934;2023-02-18T15:38:03;101063.81;;;19.87;30.71
43257;BME280;28860;43.212;27.934;2023-02-18T15:40:31;101093.88;;;20.05;30.48